Time;durP1;ratioP1;P1;durP2;ratioP2;P2;SDS_P1;SDS_P2;PMS_P1;PMS_P2;Temp;Humidity;BMP_temperature;BMP_pressure;BME280_temperature;BME280_humidity;BME280_pressure;Samples;Min_cycle;Max_cycle;Signal;HPM_P1;HPM_P2
2023/11/06 00:02:13;;;;;;;7.30;3.38;;;11.20;99.90;;;10.00;100.00;98192.16;4815474;29;20134;-83
2023/11/06 00:04:39;;;;;;;7.60;3.28;;;11.20;99.90;;;10.02;100.00;98201.59;4801712;29;20055;-83
2023/11/06 00:07:28;;;;;;;7.55;3.05;;;;;;;9.99;100.00;98204.47;4813145;29;20029;-83
2023/11/06 00:09:54;;;;;;;10.38;3.10;;;11.20;99.90;;;9.99;100.00;98212.34;4803968;29;20068;-83
2023/11/06 00:12:19;;;;;;;9.32;3.42;;;11.20;99.90;;;10.02;100.00;98217.38;4838216;29;20391;-82
2023/11/06 00:14:47;;;;;;;8.48;3.30;;;;;;;10.02;100.00;98211.25;4821415;29;20139;-83
2023/11/06 00:17:18;;;;;;;7.85;3.28;;;11.20;99.90;;;10.00;100.00;98221.91;4856990;29;20060;-82
2023/11/06 00:19:47;;;;;;;5.60;3.03;;;11.20;99.90;;;10.01;100.00;98231.47;4819483;29;20036;-83
2023/11/06 00:22:17;;;;;;;5.78;3.15;;;11.20;99.90;;;9.95;100.00;98218.81;4843785;29;20032;-82
2023/11/06 00:24:54;;;;;;;6.35;2.97;;;11.20;99.90;;;10.02;100.00;98229.66;4818229;29;20040;-82
2023/11/06 00:27:20;;;;;;;7.97;3.25;;;11.20;99.90;;;10.03;100.00;98231.34;4799496;29;20048;-83
2023/11/06 00:29:54;;;;;;;5.35;2.50;;;;;;;10.02;100.00;98232.28;4832537;29;20050;-83
2023/11/06 00:32:20;;;;;;;5.72;2.92;;;11.20;99.90;;;9.97;100.00;98232.69;4812853;29;20464;-83
2023/11/06 00:34:48;;;;;;;5.57;2.50;;;11.20;99.90;;;9.98;100.00;98237.00;4871428;28;20130;-83
2023/11/06 00:37:19;;;;;;;6.78;2.53;;;11.20;99.90;;;9.99;100.00;98248.31;4842421;28;20670;-83
2023/11/06 00:39:47;;;;;;;5.95;2.80;;;11.20;99.90;;;10.01;100.00;98255.13;4878686;28;20059;-83
2023/11/06 00:42:22;;;;;;;;;;;;;;;;;;;;;
2023/11/06 00:44:48;;;;;;;4.32;2.03;;;11.10;99.90;;;9.99;100.00;98267.56;4858745;28;20526;-82
2023/11/06 00:47:17;;;;;;;8.60;1.77;;;11.20;99.90;;;9.98;100.00;98260.66;4828250;28;20060;-83
2023/11/06 00:49:52;;;;;;;5.03;1.92;;;;;;;9.98;100.00;98268.53;4875183;28;20047;-83
2023/11/06 00:52:18;;;;;;;3.42;1.92;;;11.20;99.90;;;9.94;100.00;98269.75;4884206;28;20055;-82
2023/11/06 00:54:46;;;;;;;4.45;1.98;;;11.20;99.90;;;9.91;100.00;98269.97;4872203;28;20058;-83
2023/11/06 00:57:20;;;;;;;4.32;2.17;;;11.10;99.90;;;9.90;100.00;98276.22;4914737;28;20038;-82
2023/11/06 00:59:46;;;;;;;4.35;2.45;;;11.10;99.90;;;9.92;100.00;98282.19;4915899;28;24630;-83
2023/11/06 01:02:12;;;;;;;7.25;2.28;;;11.10;99.90;;;9.88;100.00;98280.75;4915566;28;20062;-83
2023/11/06 01:04:37;;;;;;;6.00;2.20;;;11.10;99.90;;;9.85;100.00;98281.03;4886857;28;20046;-82
2023/11/06 01:07:13;;;;;;;;;;;;;;;;;;;;;
2023/11/06 01:09:39;;;;;;;8.20;2.08;;;11.00;99.90;;;9.83;100.00;98296.09;4916371;28;20451;-82
2023/11/06 01:12:05;;;;;;;7.43;2.38;;;11.00;99.90;;;9.82;100.00;98289.97;4904139;28;20026;-83
2023/11/06 01:14:31;;;;;;;10.05;2.10;;;11.00;99.90;;;9.85;100.00;98310.78;4887346;28;20046;-83
2023/11/06 01:17:06;;;;;;;5.93;2.08;;;11.00;99.90;;;9.84;100.00;98314.34;4854296;28;20449;-82
2023/11/06 01:19:34;;;;;;;5.13;2.03;;;11.00;99.90;;;9.82;100.00;98307.53;4896691;28;20038;-82
2023/11/06 01:22:00;;;;;;;2.72;1.63;;;11.00;99.90;;;9.82;100.00;98316.25;4865995;28;20043;-82
2023/11/06 01:24:33;;;;;;;2.92;1.60;;;11.00;99.90;;;9.80;100.00;98323.44;4908244;28;20037;-83
2023/11/06 01:26:59;;;;;;;3.88;1.65;;;;;;;9.79;100.00;98328.84;4881310;28;20035;-82
2023/11/06 01:29:27;;;;;;;4.45;1.75;;;11.00;99.90;;;9.80;100.00;98330.50;4880394;28;20038;-82
2023/11/06 01:31:58;;;;;;;3.15;1.55;;;11.00;99.90;;;9.80;100.00;98333.13;4918363;28;20035;-83
2023/11/06 01:34:27;;;;;;;9.38;1.80;;;;;;;9.78;100.00;98332.41;4916710;28;20050;-82
2023/11/06 01:36:53;;;;;;;5.57;2.00;;;11.00;99.90;;;9.73;100.00;98340.66;4910115;28;20535;-83
2023/11/06 01:39:18;;;;;;;6.97;2.03;;;10.90;99.90;;;9.76;100.00;98342.22;4895775;28;20031;-82
2023/11/06 01:41:57;;;;;;;4.35;1.80;;;;;;;9.76;100.00;98345.69;4888676;28;20546;-82
2023/11/06 01:44:30;;;;;;;3.97;1.50;;;11.00;99.90;;;9.74;100.00;98347.63;4901551;28;20750;-82
2023/11/06 01:46:56;;;;;;;6.35;1.52;;;11.00;99.90;;;9.73;100.00;98355.59;4890106;28;20097;-83
2023/11/06 01:49:26;;;;;;;5.93;1.35;;;10.90;99.90;;;9.75;100.00;98364.22;4881426;28;20048;-83
2023/11/06 01:52:01;;;;;;;3.65;1.33;;;11.00;99.90;;;9.73;100.00;98352.97;4903263;28;20675;-83
2023/11/06 01:54:27;;;;;;;2.85;1.45;;;10.90;99.90;;;9.71;100.00;98363.59;4899516;28;20147;-82
2023/11/06 01:57:06;;;;;;;3.08;1.30;;;10.90;99.90;;;9.73;100.00;98371.38;4859873;28;20339;-83
2023/11/06 01:59:33;;;;;;;3.60;1.35;;;10.90;99.90;;;9.68;100.00;98373.56;4899209;28;20069;-83
2023/11/06 02:02:09;;;;;;;2.65;1.40;;;;;;;9.68;100.00;98378.81;4899213;28;20043;-82
2023/11/06 02:04:35;;;;;;;6.50;1.20;;;10.90;99.90;;;9.65;100.00;98385.97;4884150;28;20048;-83
2023/11/06 02:07:01;;;;;;;5.97;1.65;;;10.90;99.90;;;9.64;100.00;98386.91;4879276;28;20054;-82
2023/11/06 02:09:43;;;;;;;2.20;1.23;;;10.90;99.90;;;9.68;100.00;98389.31;4870309;28;20051;-82
2023/11/06 02:12:18;;;;;;;4.38;1.00;;;;;;;9.61;100.00;98400.31;4871612;28;20051;-83
2023/11/06 02:15:13;;;;;;;3.22;1.23;;;10.80;99.90;;;9.62;100.00;98396.72;4916830;28;20047;-83
2023/11/06 02:17:41;;;;;;;2.58;1.10;;;;;;;9.59;100.00;98407.47;4842378;29;20115;-83
2023/11/06 02:20:18;;;;;;;2.72;0.80;;;;;;;9.59;100.00;98410.09;4848985;29;20061;-85
2023/11/06 02:22:47;;;;;;;2.90;0.75;;;10.80;99.90;;;9.58;100.00;98410.22;4864936;28;20140;-83
2023/11/06 02:25:38;;;;;;;1.75;0.70;;;9.40;99.90;;;9.56;100.00;98415.59;4851817;28;20176;-83
2023/11/06 02:28:07;;;;;;;2.63;0.70;;;10.80;99.90;;;9.56;100.00;98423.47;4850374;29;20041;-83
2023/11/06 02:30:52;;;;;;;;;;;;;;;;;;;;;
2023/11/06 02:33:28;;;;;;;2.88;0.80;;;;;;;9.54;100.00;98430.63;4879041;28;21434;-84
2023/11/06 02:35:59;;;;;;;5.07;1.05;;;10.80;99.90;;;9.52;100.00;98439.59;4888447;28;20081;-82
2023/11/06 02:38:27;;;;;;;5.55;1.13;;;10.80;99.90;;;9.49;100.00;98435.44;4903052;28;20057;-82
2023/11/06 02:41:19;;;;;;;5.82;1.00;;;10.80;99.90;;;9.46;100.00;98443.56;4869438;28;21291;-83
2023/11/06 02:43:47;;;;;;;4.68;1.02;;;;;;;9.49;100.00;98453.81;4875019;28;20145;-82
2023/11/06 02:46:15;;;;;;;5.05;1.45;;;10.80;99.90;;;9.51;100.00;98457.16;4888721;28;20460;-83
2023/11/06 02:48:46;;;;;;;6.55;1.25;;;10.80;99.90;;;9.54;100.00;98461.34;4870530;28;20043;-82
2023/11/06 02:51:17;;;;;;;3.42;1.45;;;10.80;99.90;;;9.53;100.00;98464.94;4875570;29;20075;-84
2023/11/06 02:53:56;;;;;;;5.80;1.27;;;10.80;99.90;;;9.57;100.00;98471.63;4890061;28;20062;-82
2023/11/06 02:59:10;;;;;;;6.78;1.40;;;10.80;99.90;;;9.58;100.00;98491.66;4845178;28;20035;-83
2023/11/06 03:01:40;;;;;;;3.28;1.02;;;10.80;99.90;;;9.56;100.00;98488.31;4867830;28;20066;-83
2023/11/06 03:04:06;;;;;;;4.00;0.90;;;10.80;99.90;;;9.56;100.00;98490.94;4871972;28;20039;-83
2023/11/06 03:06:32;;;;;;;5.93;0.98;;;10.80;99.90;;;9.58;100.00;98500.38;4926607;29;20106;-83
2023/11/06 03:09:09;;;;;;;4.25;1.05;;;10.80;99.90;;;9.58;100.00;98504.81;4882810;28;21472;-83
2023/11/06 03:11:36;;;;;;;6.30;1.60;;;10.80;99.90;;;9.58;100.00;98499.53;4861278;28;20554;-84
2023/11/06 03:14:14;;;;;;;2.72;0.90;;;10.80;99.90;;;9.61;100.00;98508.03;4832714;28;20031;-83
2023/11/06 03:16:40;;;;;;;8.57;1.13;;;10.80;99.90;;;9.60;100.00;98514.22;4877147;28;20515;-83
2023/11/06 03:19:29;;;;;;;3.10;0.80;;;10.80;99.90;;;9.60;100.00;98516.84;4874623;28;20103;-84
2023/11/06 03:21:57;;;;;;;3.38;1.25;;;10.80;99.90;;;9.64;100.00;98530.59;4875547;28;20488;-83
2023/11/06 03:24:48;;;;;;;3.50;0.85;;;10.70;99.90;;;9.65;100.00;98527.88;4901016;28;20042;-82
2023/11/06 03:27:14;;;;;;;6.22;1.05;;;;;;;9.63;100.00;98528.91;4896341;28;20141;-82
2023/11/06 03:29:40;;;;;;;4.38;0.80;;;10.90;99.90;;;9.61;100.00;98531.69;4911198;28;20057;-83
2023/11/06 03:32:06;;;;;;;5.35;0.98;;;10.90;99.90;;;9.62;100.00;98545.66;4906658;28;20443;-84
2023/11/06 03:34:39;;;;;;;2.90;0.98;;;10.80;99.90;;;9.61;100.00;98549.22;4850708;28;20059;-82
2023/11/06 03:37:07;;;;;;;5.05;0.85;;;;;;;9.63;100.00;98553.44;4833759;28;20111;-83
2023/11/06 03:39:36;;;;;;;2.88;0.50;;;10.90;99.90;;;9.67;100.00;98561.06;4867954;23;20062;-82
2023/11/06 03:42:08;;;;;;;4.60;0.73;;;10.90;99.90;;;9.70;100.00;98556.41;4898379;28;20038;-83
2023/11/06 03:44:36;;;;;;;2.90;0.30;;;10.80;99.90;;;9.61;100.00;98552.72;4886801;28;20042;-83
2023/11/06 03:47:04;;;;;;;4.15;0.63;;;10.90;99.90;;;9.64;100.00;98560.34;4870136;28;20754;-82
2023/11/06 03:49:39;;;;;;;3.03;0.38;;;10.90;99.90;;;9.66;100.00;98565.47;4901628;28;20188;-83
2023/11/06 03:54:56;;;;;;;2.35;0.60;;;10.90;99.90;;;9.58;100.00;98567.84;4850020;28;20646;-82
2023/11/06 03:57:27;;;;;;;5.13;0.70;;;10.90;99.90;;;9.59;100.00;98570.38;4842843;28;20031;-82
2023/11/06 04:00:00;;;;;;;4.85;0.60;;;;;;;9.58;100.00;98576.56;4871597;23;20110;-83
2023/11/06 04:02:29;;;;;;;1.40;0.50;;;;;;;9.56;100.00;98583.72;4867337;28;20104;-81
2023/11/06 04:05:02;;;;;;;6.22;1.33;;;10.80;99.90;;;9.50;100.00;98592.06;4863407;28;20046;-83
2023/11/06 04:07:28;;;;;;;7.53;0.88;;;10.80;99.90;;;9.52;100.00;98598.06;4863255;28;20055;-83
2023/11/06 04:09:57;;;;;;;7.07;1.10;;;;;;;9.50;100.00;98592.06;4873398;28;20544;-83
2023/11/06 04:12:32;;;;;;;8.98;1.38;;;;;;;9.50;100.00;98592.06;4884649;28;20059;-84
2023/11/06 04:14:57;;;;;;;8.48;1.42;;;10.80;99.90;;;9.46;100.00;98595.91;4860646;28;20043;-83
2023/11/06 04:17:33;;;;;;;;;;;;;;;;;;;;;
2023/11/06 04:19:59;;;;;;;9.63;1.25;;;10.70;99.90;;;9.47;100.00;98599.38;4856312;28;20603;-82
2023/11/06 04:22:28;;;;;;;13.75;2.85;;;;;;;9.51;100.00;98613.97;4837267;29;20046;-83
2023/11/06 04:25:18;;;;;;;8.68;2.03;;;10.70;99.90;;;9.51;100.00;98617.41;4869638;28;20426;-83
2023/11/06 04:27:47;;;;;;;6.60;1.17;;;10.80;99.90;;;9.50;100.00;98613.09;4864122;28;20122;-83
2023/11/06 04:30:39;;;;;;;8.02;1.60;;;;;;;9.52;100.00;98618.25;4866026;28;20407;-83
2023/11/06 04:33:07;;;;;;;12.70;1.80;;;10.80;99.90;;;9.55;100.00;98632.00;4843763;28;20039;-83
2023/11/06 04:35:35;;;;;;;8.50;1.30;;;;;;;9.53;100.00;98636.53;4871819;28;20051;-83
2023/11/06 04:38:11;;;;;;;9.20;1.40;;;;;;;9.50;100.00;98630.66;4859093;28;20056;-83
2023/11/06 04:40:36;;;;;;;12.52;2.10;;;10.70;99.90;;;9.51;100.00;98640.22;4874600;28;20035;-83
2023/11/06 04:43:19;;;;;;;9.27;1.70;;;10.80;99.90;;;9.51;100.00;98635.81;4865994;28;20050;-83
2023/11/06 04:45:56;;;;;;;9.60;1.77;;;10.80;99.90;;;9.46;100.00;98643.22;4902924;28;20358;-84
2023/11/06 04:48:34;;;;;;;;;;;;;;;;;;;;;
2023/11/06 04:51:00;;;;;;;12.10;2.20;;;10.70;99.90;;;9.49;100.00;98663.16;4863351;28;20688;-83
2023/11/06 04:53:26;;;;;;;12.23;1.30;;;;;;;9.43;100.00;98659.19;4859653;28;20042;-83
2023/11/06 04:58:57;;;;;;;6.03;1.67;;;10.70;99.90;;;9.42;100.00;98671.47;4859706;28;20046;-82
2023/11/06 05:01:25;;;;;;;18.77;2.00;;;10.70;99.90;;;9.41;100.00;98675.03;4858664;28;20143;-83
2023/11/06 05:03:50;;;;;;;11.02;1.70;;;10.70;99.90;;;9.42;100.00;98679.34;4940780;28;20054;-84
2023/11/06 05:06:16;;;;;;;9.10;1.80;;;10.70;99.90;;;9.41;100.00;98682.94;4877246;28;20048;-83
2023/11/06 05:08:53;;;;;;;12.43;1.95;;;10.70;99.90;;;9.40;100.00;98683.06;4853074;28;20506;-83
2023/11/06 05:11:19;;;;;;;9.25;1.98;;;10.70;99.90;;;9.37;100.00;98684.13;4858047;28;20042;-83
2023/11/06 05:14:00;;;;;;;13.48;1.98;;;10.70;99.90;;;9.36;100.00;98687.69;4883795;28;20051;-83
2023/11/06 05:16:37;;;;;;;12.18;2.30;;;10.60;99.90;;;9.39;100.00;98697.13;4877801;28;20063;-83
2023/11/06 05:19:11;;;;;;;13.43;2.33;;;10.70;99.90;;;9.42;100.00;98705.63;4892992;23;20155;-83
2023/11/06 05:21:37;;;;;;;12.77;1.77;;;;;;;9.38;100.00;98698.09;4867512;28;20034;-82
2023/11/06 05:24:06;;;;;;;7.00;1.80;;;;;;;9.40;100.00;98712.78;4913017;28;20575;-82
2023/11/06 05:26:39;;;;;;;11.20;2.03;;;10.60;99.90;;;9.37;100.00;98714.78;4874062;28;20052;-83
2023/11/06 05:29:08;;;;;;;9.98;2.95;;;;;;;9.37;100.00;98726.16;4865645;29;20053;-83
2023/11/06 05:31:36;;;;;;;11.02;1.52;;;10.70;99.90;;;9.36;100.00;98721.00;4845724;29;20131;-83
2023/11/06 05:34:07;;;;;;;12.25;2.10;;;10.70;99.90;;;9.36;100.00;98728.88;4852070;29;20258;-82
2023/11/06 05:36:33;;;;;;;9.50;2.15;;;10.60;99.90;;;9.38;100.00;98740.13;4846011;28;20036;-82
2023/11/06 05:38:59;;;;;;;18.50;2.00;;;10.60;99.90;;;9.37;100.00;98747.16;4866874;28;20809;-82
2023/11/06 05:41:27;;;;;;;5.30;1.63;;;10.60;99.90;;;9.32;100.00;98751.91;4897027;28;20045;-82
2023/11/06 05:43:55;;;;;;;11.07;1.80;;;10.60;99.90;;;9.31;100.00;98758.13;4869460;28;20039;-83
2023/11/06 05:46:30;;;;;;;8.32;2.00;;;10.60;99.90;;;9.31;100.00;98757.25;4879058;28;20095;-82
2023/11/06 05:48:56;;;;;;;18.40;2.55;;;10.60;99.90;;;9.30;100.00;98768.72;4876499;28;20032;-81
2023/11/06 05:51:31;;;;;;;9.18;1.70;;;10.60;99.90;;;9.32;100.00;98762.41;4880538;28;20039;-83
2023/11/06 05:53:57;;;;;;;9.48;1.92;;;10.60;99.90;;;9.33;100.00;98773.75;4847391;28;20055;-82
2023/11/06 05:56:23;;;;;;;8.80;2.08;;;10.60;99.90;;;9.33;100.00;98781.63;4853057;28;20507;-83
2023/11/06 05:58:49;;;;;;;11.70;2.08;;;10.60;99.90;;;9.31;100.00;98784.38;4866615;28;20075;-82
2023/11/06 06:01:17;;;;;;;8.63;1.80;;;10.50;99.90;;;9.29;100.00;98788.03;4875063;29;20087;-82
2023/11/06 06:03:50;;;;;;;13.10;2.50;;;10.50;99.90;;;9.28;100.00;98799.50;4869786;28;20031;-82
2023/11/06 06:06:16;;;;;;;11.02;2.30;;;10.50;99.90;;;9.26;100.00;98806.66;4915931;28;20039;-83
2023/11/06 06:08:43;;;;;;;11.27;2.28;;;10.60;99.90;;;9.29;100.00;98806.44;4885795;28;20085;-83
2023/11/06 06:11:09;;;;;;;7.10;1.95;;;10.60;99.90;;;9.26;100.00;98810.13;4882351;28;20487;-82
2023/11/06 06:13:40;;;;;;;15.07;2.60;;;10.60;99.90;;;9.27;99.84;98808.34;4854786;29;20079;-82
2023/11/06 06:16:08;;;;;;;9.60;2.42;;;10.50;99.90;;;9.27;99.68;98808.34;4841460;28;20072;-82
2023/11/06 06:18:34;;;;;;;11.85;2.25;;;10.60;99.90;;;9.29;99.65;98822.19;4848947;28;20046;-83
2023/11/06 06:20:59;;;;;;;8.15;2.03;;;10.60;99.90;;;9.29;99.99;98828.31;4890622;28;20027;-83
2023/11/06 06:23:25;;;;;;;7.38;2.38;;;10.60;99.90;;;9.34;99.61;98834.06;4859352;28;20109;-82
2023/11/06 06:25:58;;;;;;;8.15;2.03;;;10.60;99.90;;;9.36;100.00;98841.81;4892546;28;20047;-81
2023/11/06 06:28:26;;;;;;;11.02;2.13;;;10.60;99.90;;;9.27;99.60;98842.50;4893479;28;20040;-83
2023/11/06 06:30:59;;;;;;;10.88;1.90;;;10.60;99.90;;;9.31;99.69;98847.41;4875615;28;20121;-83
2023/11/06 06:33:27;;;;;;;13.60;2.28;;;10.60;99.90;;;9.32;99.58;98856.97;4885845;28;20143;-83
2023/11/06 06:35:53;;;;;;;8.35;1.80;;;10.60;99.90;;;9.30;99.25;98860.66;4886783;28;20675;-81
2023/11/06 06:38:19;;;;;;;10.30;1.80;;;10.60;99.90;;;9.32;98.91;98867.47;4827406;29;20073;-82
2023/11/06 06:40:52;;;;;;;9.73;1.65;;;10.60;99.90;;;9.34;98.84;98872.63;4837314;29;20120;-83
2023/11/06 06:43:17;;;;;;;12.57;2.10;;;10.60;99.90;;;9.32;98.62;98869.25;4857227;29;20510;-81
2023/11/06 06:45:43;;;;;;;11.45;1.70;;;10.60;99.90;;;9.34;98.44;98883.13;4856565;28;20063;-83
2023/11/06 06:48:09;;;;;;;9.07;2.22;;;10.60;99.90;;;9.32;97.84;98895.53;4885181;28;20110;-82
2023/11/06 06:50:35;;;;;;;7.75;1.80;;;10.60;99.90;;;9.37;97.93;98901.28;4849596;28;20078;-83
2023/11/06 06:53:00;;;;;;;7.65;2.03;;;10.60;99.90;;;9.32;97.77;98904.22;4856644;28;20043;-81
2023/11/06 06:55:34;;;;;;;10.45;2.05;;;10.60;99.90;;;9.39;98.10;98918.59;4823002;28;20045;-83
2023/11/06 06:58:00;;;;;;;4.38;1.52;;;10.60;99.90;;;9.36;98.27;98912.75;4837643;28;20044;-81
2023/11/06 07:00:27;;;;;;;4.88;1.35;;;10.60;99.90;;;9.34;98.02;98923.34;4860673;28;20514;-83
2023/11/06 07:03:17;;;;;;;11.82;1.90;;;10.60;99.90;;;9.41;98.03;98924.59;4831198;29;20068;-83
2023/11/06 07:05:47;;;;;;;5.30;1.48;;;10.60;99.90;;;9.36;98.24;98936.38;4855628;28;20132;-83
2023/11/06 07:08:20;;;;;;;7.30;1.80;;;10.60;99.90;;;9.37;97.50;98945.94;4889428;28;20145;-83
2023/11/06 07:10:48;;;;;;;8.55;1.33;;;10.60;99.90;;;9.36;97.57;98946.91;4910780;28;20174;-81
2023/11/06 07:13:17;;;;;;;4.78;1.70;;;13.50;99.90;;;9.37;97.05;98946.81;4884467;28;20428;-82
2023/11/06 07:15:51;;;;;;;4.03;1.40;;;10.70;99.90;;;9.41;97.18;98950.84;4868275;28;20067;-82
2023/11/06 07:18:18;;;;;;;5.90;1.70;;;10.70;99.90;;;9.40;97.54;98951.00;4834435;28;20038;-83
2023/11/06 07:20:53;;;;;;;6.97;1.48;;;10.70;99.90;;;9.37;97.06;98946.81;4898391;28;20797;-82
2023/11/06 07:23:18;;;;;;;5.90;1.55;;;10.70;99.90;;;9.40;97.41;98953.63;4886575;28;20108;-82
2023/11/06 07:25:47;;;;;;;6.75;1.30;;;10.70;99.90;;;9.39;97.00;98968.50;4877336;28;20036;-82
2023/11/06 07:28:51;;;;;;;;;;;;;;;;;;;;;
2023/11/06 07:31:17;;;;;;;9.88;1.40;;;10.60;99.90;;;9.35;96.40;98972.34;4910910;28;20063;-83
2023/11/06 07:33:45;;;;;;;6.82;1.52;;;10.70;99.90;;;9.36;96.53;98973.16;4890080;28;20027;-82
2023/11/06 07:36:11;;;;;;;7.72;1.70;;;10.70;99.90;;;9.38;96.62;98987.03;4901299;28;20173;-81
2023/11/06 07:38:37;;;;;;;8.88;2.03;;;;;;;9.42;96.72;98999.84;4830420;28;20043;-83
2023/11/06 07:41:14;;;;;;;9.95;1.45;;;10.70;99.90;;;9.44;96.61;98999.75;4882764;28;20046;-81
2023/11/06 07:43:40;;;;;;;11.93;3.40;;;10.70;99.90;;;9.48;96.57;99011.72;4876432;29;20048;-81
2023/11/06 07:46:29;;;;;;;11.93;2.47;;;10.70;99.90;;;9.46;96.15;99013.63;4884820;28;20039;-82
2023/11/06 07:48:57;;;;;;;9.57;1.85;;;;;;;9.48;96.15;99016.97;4891130;28;20057;-83
2023/11/06 07:51:23;;;;;;;4.80;1.40;;;10.80;99.90;;;9.50;96.66;99025.56;4885448;28;20069;-82
2023/11/06 07:53:49;;;;;;;9.38;1.70;;;10.80;99.90;;;9.51;96.53;99023.81;4862834;28;20035;-82
2023/11/06 07:56:23;;;;;;;7.78;2.10;;;10.80;99.90;;;9.48;96.86;99030.13;4853208;28;20044;-83
2023/11/06 07:58:49;;;;;;;6.10;1.52;;;;;;;9.50;97.16;99033.44;4874157;28;20304;-81
2023/11/06 08:01:28;;;;;;;7.93;1.63;;;10.80;99.90;;;9.53;97.33;99041.13;4875045;28;20134;-82
2023/11/06 08:03:54;;;;;;;6.13;1.40;;;;;;;9.52;97.35;99039.44;4878027;28;20047;-84
2023/11/06 08:06:20;;;;;;;9.55;2.08;;;10.80;99.90;;;9.54;96.55;99048.06;4890579;28;20118;-82
2023/11/06 08:09:14;;;;;;;9.10;1.80;;;10.80;99.90;;;9.55;97.32;99054.19;4869286;28;20119;-84
2023/11/06 08:11:40;;;;;;;7.80;1.35;;;10.80;99.90;;;9.58;97.27;99057.41;4876190;28;21351;-82
2023/11/06 08:14:05;;;;;;;11.70;2.10;;;10.90;99.90;;;9.64;97.34;99070.13;4863152;28;20040;-83
2023/11/06 08:16:38;;;;;;;13.93;1.70;;;10.90;99.90;;;9.71;97.13;99077.59;4868788;28;20155;-81
2023/11/06 08:19:06;;;;;;;8.20;1.88;;;10.90;99.90;;;9.77;96.97;99077.19;4889088;28;20469;-83
2023/11/06 08:21:41;;;;;;;8.20;1.58;;;11.00;99.90;;;9.79;97.01;99080.53;4887351;28;20046;-82
2023/11/06 08:24:08;;;;;;;10.65;1.80;;;11.00;99.90;;;9.78;96.44;99084.09;4880125;28;20035;-81
2023/11/06 08:26:36;;;;;;;7.13;1.73;;;11.00;99.90;;;9.81;95.31;99097.06;4877651;28;20521;-84
2023/11/06 08:29:27;;;;;;;6.53;1.65;;;11.00;99.90;;;9.82;95.35;99096.91;4870441;28;20067;-82
2023/11/06 08:32:03;;;;;;;5.65;1.77;;;11.10;99.90;;;9.85;94.77;99104.63;4833721;29;20047;-82
2023/11/06 08:34:29;;;;;;;5.00;1.60;;;11.10;99.90;;;9.94;93.88;99111.03;4829663;29;20647;-82
2023/11/06 08:36:58;;;;;;;7.07;1.75;;;11.20;99.90;;;10.07;94.23;99114.47;4821699;29;20069;-83
2023/11/06 08:39:32;;;;;;;6.72;1.90;;;11.30;99.90;;;10.13;93.93;99110.56;4857613;23;20054;-83
2023/11/06 08:41:58;;;;;;;3.50;1.45;;;11.40;99.90;;;10.17;94.16;99117.31;4907438;28;20495;-83
2023/11/06 08:44:31;;;;;;;5.10;1.75;;;11.40;99.90;;;10.14;93.12;99108.78;4899016;28;20050;-83
2023/11/06 08:46:59;;;;;;;8.63;1.45;;;11.40;99.90;;;10.15;92.35;99124.47;4888252;28;20038;-82
2023/11/06 08:49:25;;;;;;;8.77;1.80;;;11.40;99.90;;;10.22;92.79;99127.50;4862844;28;20028;-83
2023/11/06 08:51:51;;;;;;;4.43;1.20;;;11.40;99.90;;;10.18;92.70;99123.41;4840425;28;20047;-81
2023/11/06 08:54:16;;;;;;;7.70;1.98;;;11.40;99.90;;;10.11;92.30;99137.91;4880388;28;20042;-83
2023/11/06 08:56:42;;;;;;;5.13;1.60;;;11.40;99.90;;;10.03;91.52;99143.72;4909992;28;20098;-82
2023/11/06 08:59:08;;;;;;;5.10;1.48;;;11.40;99.90;;;10.01;92.08;99149.06;4893719;28;20492;-82
2023/11/06 09:01:48;;;;;;;5.18;1.42;;;11.30;99.90;;;9.94;92.29;99141.75;4874141;28;20035;-82
2023/11/06 09:04:19;;;;;;;5.97;1.50;;;11.20;99.90;;;9.84;91.63;99150.22;4880552;28;20075;-82
2023/11/06 09:06:48;;;;;;;4.85;1.83;;;11.20;99.90;;;9.85;92.29;99153.72;4891478;28;20028;-82
2023/11/06 09:09:18;;;;;;;6.32;1.80;;;11.20;99.90;;;9.87;92.55;99167.63;4879190;28;20087;-83
2023/11/06 09:11:51;;;;;;;4.47;1.27;;;11.20;99.90;;;9.93;93.12;99171.59;4880447;28;20060;-83
2023/11/06 09:14:17;;;;;;;5.32;1.80;;;11.20;99.90;;;9.98;93.05;99186.13;4878488;28;20093;-82
2023/11/06 09:16:51;;;;;;;6.95;1.63;;;11.30;99.90;;;10.06;92.64;99196.09;4903952;28;20038;-81
2023/11/06 09:19:17;;;;;;;8.73;1.48;;;11.30;99.90;;;10.11;92.21;99201.91;4912657;23;20050;-83
2023/11/06 09:21:48;;;;;;;8.02;1.58;;;11.30;99.90;;;10.10;91.96;99207.25;4929655;28;20469;-82
2023/11/06 09:24:22;;;;;;;5.40;1.63;;;11.40;99.90;;;10.11;91.67;99211.53;4930961;28;20061;-82
2023/11/06 09:26:48;;;;;;;5.88;1.67;;;11.40;99.90;;;10.21;92.40;99217.88;4956737;28;20492;-82
2023/11/06 09:29:24;;;;;;;;;;;;;;;;;;;;;
2023/11/06 09:31:51;;;;;;;;;;;11.80;99.90;;;10.28;91.89;99234.94;4934879;28;20543;-83
2023/11/06 09:34:19;;;;;;;;;;;11.50;99.90;;;10.20;91.43;99231.97;4941907;28;20000;-82
2023/11/06 09:36:59;;;;;;;5.65;1.40;;;11.50;99.90;;;10.28;92.24;99248.09;4912012;28;20632;-83
2023/11/06 09:39:43;;;;;;;7.93;1.63;;;11.50;99.90;;;10.28;91.51;99240.19;4912216;23;20051;-83
2023/11/06 09:42:17;;;;;;;9.50;2.10;;;11.50;99.90;;;10.32;91.48;99241.66;4911404;28;20038;-82
2023/11/06 09:44:53;;;;;;;3.70;1.50;;;11.50;99.90;;;10.29;90.70;99262.94;4914652;28;20481;-83
2023/11/06 09:47:24;;;;;;;11.73;1.65;;;11.50;99.90;;;10.34;91.12;99266.09;4891647;28;20062;-83
2023/11/06 09:50:05;;;;;;;7.38;1.55;;;11.60;99.90;;;10.51;91.92;99266.72;4923070;28;20050;-82
2023/11/06 09:52:41;;;;;;;6.28;1.52;;;11.70;99.90;;;10.52;90.41;99268.38;4829472;28;20136;-83
2023/11/06 09:55:50;;;;;;;6.00;1.80;;;11.80;99.90;;;10.61;90.21;99275.66;4818734;28;20053;-83
2023/11/06 09:57:57;;;;;;;7.22;1.83;;;11.80;99.90;;;10.63;89.63;99281.66;4912858;28;20038;-83
2023/11/06 10:00:26;;;;;;;7.32;1.40;;;11.90;99.90;;;10.60;89.24;99289.75;4890271;28;20038;-82
2023/11/06 10:02:53;;;;;;;7.68;1.40;;;11.80;99.90;;;10.60;88.63;99287.13;4894242;28;20041;-83
2023/11/06 10:05:29;;;;;;;6.13;1.52;;;11.80;99.90;;;10.61;89.29;99291.47;4929995;28;20043;-82
2023/11/06 10:07:54;;;;;;;7.43;1.60;;;11.80;99.90;;;10.62;88.87;99290.50;4927891;28;20030;-83
2023/11/06 10:10:32;;;;;;;7.35;1.50;;;11.80;99.90;;;10.60;89.15;99295.84;4896244;28;20055;-83
2023/11/06 10:13:16;;;;;;;4.63;1.55;;;11.80;99.90;;;10.60;88.30;99300.28;4898264;28;20047;-82
2023/11/06 10:16:21;;;;;;;4.07;1.40;;;11.90;99.90;;;10.60;89.53;99302.91;4922763;28;20675;-83
2023/11/06 10:18:50;;;;;;;5.88;1.35;;;11.80;99.90;;;10.56;89.28;99302.31;4907828;23;20141;-83
2023/11/06 10:21:29;;;;;;;7.15;1.42;;;11.80;99.90;;;10.58;89.15;99316.22;4887048;28;20577;-82
2023/11/06 10:24:24;;;;;;;7.72;1.58;;;;;;;10.64;90.23;99317.56;4889640;28;20050;-83
2023/11/06 10:26:50;;;;;;;6.97;1.42;;;11.80;99.90;;;10.71;89.57;99315.34;4889938;28;20545;-82
2023/11/06 10:29:58;;;;;;;8.93;1.27;;;11.90;99.90;;;10.63;88.72;99314.09;4877470;28;20052;-83
2023/11/06 10:32:29;;;;;;;;;;;11.80;99.90;;;10.59;89.06;99312.63;4908016;28;20035;-84
2023/11/06 10:35:17;;;;;;;10.68;2.13;;;11.80;99.90;;;10.67;88.81;99320.00;4852348;28;19982;-84
2023/11/06 10:37:47;;;;;;;4.10;1.67;;;11.90;99.90;;;10.77;88.09;99323.66;4860571;28;20043;-82
2023/11/06 10:40:39;;;;;;;4.68;1.45;;;11.90;99.90;;;10.74;86.72;99328.31;4945189;23;20046;-83
2023/11/06 10:43:08;;;;;;;11.40;1.75;;;12.00;99.90;;;10.74;87.53;99331.78;4947819;28;20133;-83
2023/11/06 10:45:59;;;;;;;6.07;1.42;;;12.00;99.90;;;10.80;87.21;99339.25;4913659;28;20078;-83
2023/11/06 10:48:57;;;;;;;10.18;1.48;;;12.00;99.90;;;10.93;87.62;99336.59;4933986;28;20128;-82
2023/11/06 10:51:47;;;;;;;5.30;1.30;;;12.10;99.90;;;11.02;87.84;99340.38;4861437;29;20054;-83
2023/11/06 10:54:19;;;;;;;3.63;1.45;;;12.20;99.90;;;11.09;87.25;99352.16;4836140;29;20438;-83
2023/11/06 10:56:57;;;;;;;7.00;1.08;;;12.20;99.90;;;11.04;86.40;99355.13;4821573;29;20075;-82
2023/11/06 10:59:40;;;;;;;7.10;1.92;;;12.20;99.90;;;11.03;85.79;99360.47;4876146;29;20148;-82
2023/11/06 11:02:20;;;;;;;10.18;1.23;;;12.20;99.90;;;11.04;86.32;99360.38;4881082;28;20112;-82
2023/11/06 11:04:59;;;;;;;7.18;1.40;;;12.20;99.90;;;11.07;86.86;99361.97;4878558;29;20136;-83
2023/11/06 11:07:38;;;;;;;6.45;1.50;;;12.30;99.90;;;11.05;86.36;99369.97;4876527;29;20111;-82